Time;durP1;ratioP1;P1;durP2;ratioP2;P2;SDS_P1;SDS_P2;PMS_P1;PMS_P2;Temp;Humidity;BMP_temperature;BMP_pressure;BME280_temperature;BME280_humidity;BME280_pressure;Samples;Min_cycle;Max_cycle;Signal;HPM_P1;HPM_P2
2023/12/13 02:21:10;;;;;;;1.00;0.80;;;;;;;11.23;64.36;93714.75;6278129;22;20019;-86
2023/12/13 07:27:09;;;;;;;1.33;0.82;;;;;;;10.07;62.01;93491.81;6243951;22;20028;-86
2023/12/13 08:49:35;;;;;;;2.95;1.10;;;;;;;10.57;63.05;93490.88;6244360;22;20114;-86
2023/12/13 08:52:00;;;;;;;2.20;0.68;;;;;;;10.64;61.42;93498.56;6167795;23;20008;-85
2023/12/13 08:56:54;;;;;;;1.60;0.80;;;;;;;10.61;61.64;93499.03;6276262;22;20024;-86
2023/12/13 08:59:20;;;;;;;1.60;0.75;;;;;;;10.64;61.94;93504.59;6248299;22;20016;-85
2023/12/13 09:01:46;;;;;;;1.33;1.00;;;;;;;10.91;61.92;93519.84;6222796;22;20011;-85
2023/12/13 09:38:51;;;;;;;1.67;1.55;;;;;;;10.30;62.58;93503.34;6273928;22;20027;-85
2023/12/13 09:41:32;;;;;;;1.30;0.60;;;;;;;10.50;60.92;93509.13;6222921;22;20016;-86
2023/12/13 09:43:58;;;;;;;0.40;0.40;;;;;;;10.67;61.57;93509.31;6247746;22;20029;-86
2023/12/13 09:48:54;;;;;;;0.40;0.30;;;;;;;10.68;60.55;93503.13;6274304;22;20047;-86
2023/12/13 09:51:22;;;;;;;2.15;0.40;;;;;;;10.82;60.46;93503.72;6222427;22;20031;-85
2023/12/13 09:53:51;;;;;;;0.55;0.30;;;;;;;10.57;60.29;93494.25;6247969;22;20097;-86
2023/12/13 10:11:47;;;;;;;0.47;0.20;;;;;;;11.22;58.53;93495.34;6273445;22;20039;-86
2023/12/13 10:14:13;;;;;;;0.40;0.40;;;;;;;11.39;58.60;93481.69;6222309;22;20015;-86
2023/12/13 10:16:42;;;;;;;0.28;0.20;;;;;;;11.46;58.66;93488.38;6222472;22;20018;-86
2023/12/13 10:19:08;;;;;;;1.80;1.20;;;;;;;11.71;60.60;93475.13;6223000;22;20185;-86
2023/12/13 11:00:41;;;;;;;1.95;1.67;;;;;;;11.11;62.07;93480.50;6274189;22;20012;-86
2023/12/13 11:03:13;;;;;;;2.28;1.48;;;;;;;11.16;61.72;93491.06;6249306;22;20015;-86
2023/12/13 11:08:17;;;;;;;2.35;1.98;;;;;;;10.87;62.41;93490.88;6272169;22;20011;-84
2023/12/13 11:11:03;;;;;;;1.73;1.60;;;;;;;10.74;62.79;93498.84;6278804;22;20038;-85
2023/12/13 11:13:29;;;;;;;1.95;1.70;;;;;;;10.76;62.67;93486.41;6277724;22;20014;-85
2023/12/13 11:15:54;;;;;;;2.70;1.60;;;;;;;10.59;63.62;93481.03;6252890;22;20027;-85
2023/12/13 11:18:20;;;;;;;1.67;1.58;;;;;;;10.11;64.95;93472.19;6278939;22;20010;-84
2023/12/13 12:23:30;;;;;;;0.70;0.60;;;;;;;11.63;58.90;93409.56;6272662;22;20075;-86
2023/12/13 12:25:56;;;;;;;0.90;0.80;;;;;;;11.57;60.39;93400.88;6247670;22;20023;-85
2023/12/13 12:28:23;;;;;;;0.98;0.70;;;;;;;11.82;59.08;93394.59;6248551;22;20145;-86
2023/12/13 12:30:49;;;;;;;1.52;0.70;;;;;;;11.79;58.87;93395.06;6224286;22;20011;-85
2023/12/13 12:46:14;;;;;;;1.33;0.95;;;;;;;11.98;59.05;93391.31;6245749;22;20090;-85
2023/12/13 13:32:29;;;;;;;0.60;0.60;;;;;;;11.46;58.32;93381.66;6269791;22;20091;-86
2023/12/13 13:34:56;;;;;;;1.08;0.77;;;;;;;11.45;60.35;93379.25;6222678;22;20095;-86
2023/12/13 14:44:32;;;;;;;1.25;0.90;;;;;;;11.25;59.95;93403.84;6276513;22;20019;-86
2023/12/13 16:05:53;;;;;;;0.80;0.40;;;;;;;9.84;62.28;93540.97;6272813;22;20028;-85
2023/12/13 16:08:18;;;;;;;3.45;0.50;;;;;;;9.92;61.79;93548.53;6210970;23;20020;-84
2023/12/13 16:10:46;;;;;;;0.65;0.50;;;;;;;9.72;61.77;93541.69;6192107;23;20062;-85
2023/12/13 16:13:13;;;;;;;1.15;0.60;;;;;;;9.67;62.24;93548.50;6192992;23;20005;-84
2023/12/13 16:15:39;;;;;;;0.47;0.47;;;;;;;9.48;63.35;93550.25;6167340;23;20028;-85
2023/12/13 16:18:04;;;;;;;0.90;0.50;;;;;;;9.35;63.69;93539.00;6191735;23;20000;-84
2023/12/13 16:20:30;;;;;;;0.63;0.50;;;;;;;9.55;63.54;93551.81;6216991;23;20015;-85
2023/12/13 16:22:56;;;;;;;0.93;0.60;;;;;;;9.62;62.66;93556.16;6191765;23;20004;-84
2023/12/13 16:25:22;;;;;;;0.70;0.68;;;;;;;9.46;62.94;93542.72;6192619;23;20061;-84
2023/12/13 16:27:47;;;;;;;0.68;0.57;;;;;;;9.33;63.04;93560.97;6191905;23;20008;-85
2023/12/13 16:30:13;;;;;;;1.35;0.70;;;;;;;9.47;62.94;93567.63;6167094;23;20015;-84
2023/12/13 16:32:40;;;;;;;0.98;0.70;;;;;;;9.61;62.32;93573.53;6193093;23;20000;-84
2023/12/13 16:35:08;;;;;;;1.20;0.80;;;;;;;9.62;62.60;93571.75;6217820;23;20004;-85
2023/12/13 16:37:38;;;;;;;1.67;0.80;;;;;;;9.45;62.78;93582.63;6192468;23;20064;-85
2023/12/13 16:40:05;;;;;;;2.88;0.70;;;;;;;9.63;61.89;93575.91;6216534;23;20004;-85
2023/12/13 16:42:31;;;;;;;1.00;0.60;;;;;;;9.72;61.18;93585.03;6216232;23;20008;-85
2023/12/13 16:44:56;;;;;;;0.93;0.60;;;;;;;9.70;61.16;93582.63;6192436;23;20010;-85
2023/12/13 16:47:22;;;;;;;0.57;0.57;;;;;;;9.62;61.00;93589.91;6216579;23;20067;-84
2023/12/13 16:49:47;;;;;;;0.60;0.60;;;;;;;9.44;62.52;93582.84;6190202;23;20012;-84
2023/12/13 16:52:14;;;;;;;0.50;0.50;;;;;;;9.48;62.48;93596.97;6165414;23;20019;-84
2023/12/13 16:54:41;;;;;;;1.40;0.80;;;;;;;9.57;62.25;93583.53;6215784;23;20000;-84
2023/12/13 16:57:10;;;;;;;0.93;0.60;;;;;;;9.66;62.01;93591.06;6191389;23;20000;-84
2023/12/13 16:59:35;;;;;;;0.77;0.63;;;;;;;9.61;61.65;93591.69;6192156;23;20023;-84
2023/12/13 17:02:02;;;;;;;0.77;0.60;;;;;;;9.83;60.42;93586.16;6192029;23;20012;-85
2023/12/13 17:04:27;;;;;;;0.70;0.70;;;;;;;9.92;60.73;93596.06;6216857;23;20083;-84
2023/12/13 17:06:53;;;;;;;1.02;0.70;;;;;;;9.69;61.58;93593.22;6216952;23;20055;-85
2023/12/13 17:09:18;;;;;;;0.93;0.73;;;;;;;9.48;61.73;93579.63;6191518;23;20043;-85
2023/12/13 17:11:44;;;;;;;1.70;0.88;;;;;;;9.38;61.74;93595.63;6166490;23;20016;-84
2023/12/13 17:14:10;;;;;;;1.65;1.13;;;;;;;9.16;62.81;93586.63;6192306;23;20107;-85
2023/12/13 17:16:35;;;;;;;1.08;0.80;;;;;;;8.48;64.19;93598.28;6191991;23;20070;-84
2023/12/13 17:19:01;;;;;;;1.23;0.77;;;;;;;8.05;65.75;93600.53;6167316;23;20062;-84
2023/12/13 17:21:27;;;;;;;2.40;0.70;;;;;;;8.01;65.36;93613.06;6192117;23;20016;-84
2023/12/13 17:23:52;;;;;;;0.70;0.68;;;;;;;8.41;64.42;93603.50;6167517;23;20008;-84
2023/12/13 17:26:19;;;;;;;0.90;0.90;;;;;;;8.95;62.80;93613.66;6192403;23;20028;-85
2023/12/13 17:28:45;;;;;;;1.10;1.00;;;;;;;8.73;63.31;93613.94;6192109;23;20012;-84
2023/12/13 17:31:10;;;;;;;0.93;0.60;;;;;;;9.11;62.31;93589.81;6167604;23;20062;-84
2023/12/13 17:33:36;;;;;;;0.70;0.63;;;;;;;9.41;61.14;93594.44;6192362;23;20008;-85
2023/12/13 17:36:01;;;;;;;1.63;0.77;;;;;;;9.47;61.56;93600.59;6192654;23;20008;-84
2023/12/13 17:38:27;;;;;;;0.95;0.70;;;;;;;9.32;60.67;93593.09;6191817;23;20016;-85
2023/12/13 17:40:53;;;;;;;0.82;0.60;;;;;;;9.19;61.92;93586.19;6190929;23;20016;-84
2023/12/13 17:43:18;;;;;;;0.60;0.60;;;;;;;9.34;61.40;93583.31;6166058;23;20015;-84
2023/12/13 17:45:44;;;;;;;1.08;0.65;;;;;;;9.41;61.04;93588.47;6192276;23;20056;-84
2023/12/13 17:48:10;;;;;;;0.50;0.47;;;;;;;9.19;61.54;93575.81;6167480;23;20009;-84
2023/12/13 17:50:35;;;;;;;3.20;1.88;;;;;;;9.35;61.55;93584.91;6216020;23;20087;-84
2023/12/13 17:53:05;;;;;;;1.00;0.98;;;;;;;9.43;59.92;93591.66;6216327;23;20046;-84
2023/12/13 17:55:30;;;;;;;0.65;0.60;;;;;;;8.90;62.09;93598.72;6191906;23;20015;-85
2023/12/13 17:57:56;;;;;;;2.30;2.10;;;;;;;9.37;60.67;93603.66;6166789;23;20016;-84
2023/12/13 18:00:21;;;;;;;1.70;1.52;;;;;;;9.16;61.14;93597.00;6191847;23;20019;-84
2023/12/13 18:02:47;;;;;;;0.68;0.60;;;;;;;9.19;60.82;93599.16;6191544;23;20004;-85
2023/12/13 18:05:13;;;;;;;0.77;0.55;;;;;;;9.48;59.96;93607.34;6191694;23;20015;-84
2023/12/13 18:07:39;;;;;;;1.05;0.88;;;;;;;9.35;60.15;93603.06;6191607;23;20055;-85
2023/12/13 18:10:05;;;;;;;2.20;1.92;;;;;;;9.16;59.38;93609.97;6191848;23;20027;-84
2023/12/13 18:12:30;;;;;;;4.05;3.47;;;;;;;9.33;59.24;93615.47;6216381;23;20004;-84
2023/12/13 18:14:57;;;;;;;1.55;0.98;;;;;;;9.14;59.00;93611.97;6192055;23;20008;-85
2023/12/13 18:17:22;;;;;;;1.00;0.90;;;;;;;9.22;59.69;93616.91;6167523;23;20019;-84
2023/12/13 18:19:48;;;;;;;0.70;0.38;;;;;;;9.37;58.98;93609.63;6166455;23;20012;-84
2023/12/13 18:22:13;;;;;;;0.57;0.43;;;;;;;9.32;57.84;93621.63;6192005;23;20039;-84
2023/12/13 18:24:39;;;;;;;3.08;2.42;;;;;;;9.08;60.63;93618.78;6216683;23;20070;-84
2023/12/13 18:27:05;;;;;;;7.80;6.35;;;;;;;9.54;59.83;93628.09;6191216;23;20008;-84
2023/12/13 18:29:32;;;;;;;5.00;4.00;;;;;;;9.57;60.41;93625.06;6191175;23;20062;-84
2023/12/13 18:31:57;;;;;;;5.25;3.50;;;;;;;9.33;61.12;93621.44;6166443;23;20004;-85
2023/12/13 18:34:24;;;;;;;3.20;2.70;;;;;;;9.59;59.34;93627.44;6191590;23;20015;-85
2023/12/13 18:36:50;;;;;;;2.70;1.83;;;;;;;9.62;60.38;93629.63;6165489;23;20141;-84
2023/12/13 18:39:17;;;;;;;1.95;1.65;;;;;;;9.76;59.05;93631.13;6191739;23;20012;-84
2023/12/13 18:41:43;;;;;;;2.20;1.70;;;;;;;9.53;60.26;93613.50;6166656;23;20094;-84
2023/12/13 18:44:09;;;;;;;3.30;2.38;;;;;;;9.65;59.75;93633.59;6191462;23;20062;-85
2023/12/13 18:46:34;;;;;;;2.35;1.92;;;;;;;9.63;60.23;93641.59;6216606;23;20058;-84
2023/12/13 18:49:00;;;;;;;5.60;3.67;;;;;;;9.74;59.43;93645.31;6191641;23;20087;-85
2023/12/13 18:51:25;;;;;;;4.45;2.60;;;;;;;9.56;59.31;93639.06;6215833;23;20091;-85
2023/12/13 18:53:50;;;;;;;2.72;2.40;;;;;;;9.59;59.15;93643.03;6167379;23;20087;-85
2023/12/13 18:56:20;;;;;;;1.60;1.40;;;;;;;9.44;59.14;93640.72;6216709;23;20008;-85
2023/12/13 18:58:45;;;;;;;1.20;1.00;;;;;;;9.35;59.96;93645.38;6167573;23;20015;-84
2023/12/13 19:01:11;;;;;;;0.98;0.60;;;;;;;9.55;59.59;93657.44;6216394;23;20012;-84
2023/12/13 19:03:37;;;;;;;1.88;0.80;;;;;;;9.39;59.85;93659.50;6169332;23;20010;-85
2023/12/13 19:06:02;;;;;;;0.70;0.70;;;;;;;9.51;59.30;93661.44;6193321;23;20011;-85
2023/12/13 19:08:28;;;;;;;2.30;0.70;;;;;;;9.20;59.16;93655.22;6193760;23;20012;-85
2023/12/13 19:10:55;;;;;;;1.13;0.70;;;;;;;9.26;59.20;93666.59;6193631;23;20008;-85
2023/12/13 19:13:23;;;;;;;0.68;0.50;;;;;;;9.25;59.14;93662.38;6194080;23;20004;-84
2023/12/13 19:15:48;;;;;;;0.80;0.60;;;;;;;9.33;59.13;93649.97;6194352;23;20028;-85
2023/12/13 19:18:15;;;;;;;0.68;0.50;;;;;;;9.52;59.00;93665.63;6193140;23;20016;-84
2023/12/13 19:20:41;;;;;;;0.90;0.70;;;;;;;9.66;58.72;93676.75;6193335;23;20012;-85
2023/12/13 19:23:09;;;;;;;1.50;0.80;;;;;;;9.69;59.38;93671.94;6193797;23;20000;-84
2023/12/13 19:25:34;;;;;;;1.13;0.70;;;;;;;9.62;59.53;93665.97;6217911;23;20035;-85
2023/12/13 19:28:00;;;;;;;1.65;0.90;;;;;;;9.55;59.99;93673.78;6168525;23;20012;-84
2023/12/13 19:30:26;;;;;;;2.50;1.13;;;;;;;9.64;59.36;93684.72;6192003;23;20016;-85
2023/12/13 19:32:51;;;;;;;1.58;1.20;;;;;;;9.51;59.09;93679.63;6166646;23;20023;-85
2023/12/13 19:35:16;;;;;;;2.53;0.90;;;;;;;9.55;58.88;93665.22;6167978;23;20012;-85
2023/12/13 19:37:42;;;;;;;1.60;1.27;;;;;;;9.68;58.86;93693.69;6168618;23;20000;-85
2023/12/13 19:40:09;;;;;;;1.83;1.20;;;;;;;9.50;60.18;93680.59;6192732;23;20019;-85
2023/12/13 19:42:35;;;;;;;1.98;1.02;;;;;;;9.44;60.76;93684.84;6193404;23;20024;-84
2023/12/13 19:45:00;;;;;;;2.63;1.27;;;;;;;9.35;60.59;93693.88;6193303;23;20023;-84
2023/12/13 19:47:27;;;;;;;2.30;0.80;;;;;;;9.42;59.77;93709.41;6217760;23;20008;-84
2023/12/13 19:49:54;;;;;;;2.20;0.80;;;;;;;9.41;59.09;93702.63;6168483;23;20068;-84
2023/12/13 19:52:20;;;;;;;4.65;3.03;;;;;;;9.58;59.70;93701.16;6167878;23;20042;-85
2023/12/13 19:54:45;;;;;;;29.73;20.02;;;;;;;9.44;60.70;93710.00;6167826;23;20011;-84
2023/12/13 19:57:11;;;;;;;7.65;4.30;;;;;;;9.54;60.87;93723.34;6192794;23;20008;-85
2023/12/13 19:59:36;;;;;;;6.88;4.45;;;;;;;9.42;60.71;93719.78;6192859;23;20027;-85
2023/12/13 20:02:02;;;;;;;4.68;2.90;;;;;;;9.27;61.79;93725.22;6167907;23;20016;-84
2023/12/13 20:04:28;;;;;;;3.20;2.20;;;;;;;9.47;61.15;93730.34;6168422;23;20012;-84
2023/12/13 20:06:53;;;;;;;1.35;1.00;;;;;;;9.64;59.55;93736.66;6192324;23;20024;-85
2023/12/13 20:09:20;;;;;;;2.20;1.40;;;;;;;9.63;59.88;93742.03;6218113;23;20015;-84
2023/12/13 20:11:46;;;;;;;3.78;1.58;;;;;;;9.73;59.78;93743.19;6192614;23;20074;-84
2023/12/13 20:14:13;;;;;;;2.00;1.10;;;;;;;9.61;59.66;93742.25;6192157;23;20016;-84
2023/12/13 20:16:39;;;;;;;2.67;1.70;;;;;;;9.77;59.62;93739.16;6168476;23;20011;-85
2023/12/13 20:19:04;;;;;;;2.88;2.60;;;;;;;9.84;59.44;93748.72;6167456;23;20012;-84
2023/12/13 20:21:30;;;;;;;2.63;2.42;;;;;;;9.59;60.09;93752.84;6168068;23;20016;-84
2023/12/13 20:23:56;;;;;;;3.00;2.67;;;;;;;9.50;60.94;93748.09;6192234;23;20011;-85
2023/12/13 20:26:22;;;;;;;2.92;2.40;;;;;;;9.56;60.62;93752.47;6192647;23;20008;-84
2023/12/13 20:28:50;;;;;;;2.78;1.67;;;;;;;9.55;60.65;93754.25;6167994;23;20012;-84
2023/12/13 20:31:15;;;;;;;4.70;1.75;;;;;;;9.66;60.16;93760.59;6168731;23;20098;-84
2023/12/13 20:33:41;;;;;;;1.40;1.10;;;;;;;9.61;60.14;93763.00;6192120;23;20047;-85
2023/12/13 20:36:09;;;;;;;2.45;0.90;;;;;;;9.56;60.43;93768.84;6192884;23;20038;-84
2023/12/13 20:38:34;;;;;;;2.17;1.17;;;;;;;9.59;60.39;93757.22;6169058;23;20070;-85
2023/12/13 20:41:02;;;;;;;1.67;1.13;;;;;;;9.61;60.51;93768.22;6217356;23;20016;-85
2023/12/13 20:43:28;;;;;;;1.58;1.10;;;;;;;9.53;60.58;93774.44;6217579;23;19996;-84
2023/12/13 20:45:53;;;;;;;1.65;1.35;;;;;;;9.37;61.65;93774.91;6167912;23;20011;-84
2023/12/13 20:48:19;;;;;;;2.17;1.20;;;;;;;9.42;60.72;93777.66;6217374;23;20018;-85
2023/12/13 20:50:45;;;;;;;2.20;1.35;;;;;;;9.28;60.92;93776.94;6217559;23;20019;-84
2023/12/13 20:53:10;;;;;;;2.00;1.30;;;;;;;9.32;61.05;93787.69;6191859;23;20016;-84
2023/12/13 20:55:36;;;;;;;1.23;0.90;;;;;;;9.22;61.04;93780.34;6192039;23;20031;-84
2023/12/13 20:58:01;;;;;;;1.60;1.00;;;;;;;9.43;60.33;93765.50;6167486;23;20019;-85
2023/12/13 21:00:28;;;;;;;2.20;1.10;;;;;;;9.18;60.99;93782.53;6191968;23;20107;-85
2023/12/13 21:02:54;;;;;;;1.38;1.10;;;;;;;9.43;60.51;93789.66;6192452;23;20011;-84
2023/12/13 21:05:19;;;;;;;2.10;1.00;;;;;;;9.59;59.47;93772.81;6217037;23;20008;-85
2023/12/13 21:07:45;;;;;;;2.47;1.17;;;;;;;9.45;60.57;93789.44;6167788;23;20020;-84
2023/12/13 21:10:12;;;;;;;1.10;1.00;;;;;;;9.07;61.88;93784.97;6167381;23;20016;-84
2023/12/13 21:12:40;;;;;;;2.45;1.13;;;;;;;9.14;61.28;93789.16;6192207;23;20008;-84
2023/12/13 21:15:06;;;;;;;2.28;1.20;;;;;;;9.03;61.67;93788.97;6217089;23;20067;-84
2023/12/13 21:17:32;;;;;;;1.27;1.00;;;;;;;9.15;61.28;93784.75;6166926;23;20039;-84
2023/12/13 21:19:59;;;;;;;1.10;1.00;;;;;;;9.12;61.22;93796.34;6191335;23;20095;-84
2023/12/13 21:22:24;;;;;;;1.63;1.00;;;;;;;9.04;61.50;93785.38;6190955;23;20004;-84
2023/12/13 21:24:53;;;;;;;1.67;1.05;;;;;;;9.09;61.02;93788.16;6166368;23;20030;-85
2023/12/13 21:27:19;;;;;;;1.92;1.00;;;;;;;8.82;62.31;93783.03;6192585;23;20047;-84
2023/12/13 21:29:45;;;;;;;1.02;0.90;;;;;;;9.04;61.93;93795.75;6216987;23;20011;-84
2023/12/13 21:32:11;;;;;;;1.90;1.10;;;;;;;8.91;62.55;93801.75;6166912;23;20020;-84
2023/12/13 21:34:36;;;;;;;1.75;1.20;;;;;;;9.09;61.96;93804.50;6191924;23;20008;-84
2023/12/13 21:37:04;;;;;;;1.70;1.10;;;;;;;9.18;61.39;93800.69;6192286;23;20012;-85
2023/12/13 21:39:30;;;;;;;1.63;1.30;;;;;;;9.23;61.55;93807.06;6191762;23;20016;-84
2023/12/13 21:41:55;;;;;;;3.60;1.40;;;;;;;9.11;62.12;93801.72;6167429;23;20077;-85
2023/12/13 21:44:21;;;;;;;1.80;1.48;;;;;;;9.16;61.88;93807.09;6191602;23;20067;-84
2023/12/13 21:46:47;;;;;;;1.52;1.35;;;;;;;8.69;63.44;93814.16;6166777;23;20012;-85
2023/12/13 21:49:13;;;;;;;2.05;1.25;;;;;;;9.08;62.59;93810.72;6216671;23;20015;-84
2023/12/13 21:51:39;;;;;;;2.60;1.60;;;;;;;8.95;62.91;93818.53;6217151;23;20008;-84
2023/12/13 21:54:04;;;;;;;1.95;1.20;;;;;;;8.73;62.88;93807.56;6191843;23;20008;-85
2023/12/13 21:56:30;;;;;;;2.17;1.30;;;;;;;8.89;63.04;93819.31;6192007;23;20012;-84
2023/12/13 21:58:55;;;;;;;1.73;1.20;;;;;;;9.09;61.93;93821.88;6191608;23;20008;-84
2023/12/13 22:01:21;;;;;;;1.30;1.08;;;;;;;9.24;60.81;93809.47;6191566;23;20008;-84
2023/12/13 22:03:49;;;;;;;1.63;1.30;;;;;;;9.03;61.83;93815.69;6167351;23;20000;-84
2023/12/13 22:06:15;;;;;;;1.52;1.30;;;;;;;9.13;61.86;93826.44;6168069;23;20127;-85
2023/12/13 22:08:40;;;;;;;2.55;1.50;;;;;;;9.18;62.54;93839.63;6216144;23;20050;-85
2023/12/13 22:11:05;;;;;;;1.95;1.30;;;;;;;9.21;61.66;93841.00;6217142;23;20027;-85
2023/12/13 22:13:32;;;;;;;2.15;1.20;;;;;;;9.33;61.96;93856.75;6166876;23;20130;-85
2023/12/13 22:15:57;;;;;;;1.38;1.00;;;;;;;9.37;61.93;93844.97;6192120;23;20011;-85
2023/12/13 22:18:25;;;;;;;1.55;1.30;;;;;;;9.23;62.37;93849.38;6216771;23;20008;-85
2023/12/13 22:20:55;;;;;;;1.80;1.20;;;;;;;9.14;62.61;93858.38;6193193;23;20027;-86
2023/12/13 22:23:22;;;;;;;1.45;1.13;;;;;;;9.18;62.13;93857.78;6217410;23;20004;-85
2023/12/13 22:25:51;;;;;;;1.25;1.08;;;;;;;9.27;62.02;93868.75;6191395;23;20012;-85
2023/12/13 22:28:20;;;;;;;2.35;1.13;;;;;;;9.24;61.74;93861.34;6216326;23;20063;-85
2023/12/13 22:30:45;;;;;;;2.17;1.20;;;;;;;9.31;61.40;93876.91;6215926;23;20083;-85
2023/12/13 22:33:11;;;;;;;1.00;0.90;;;;;;;9.14;61.98;93879.16;6190508;23;20032;-85
2023/12/13 22:35:37;;;;;;;2.40;1.25;;;;;;;9.18;61.68;93877.75;6167717;23;20079;-85
2023/12/13 22:40:37;;;;;;;1.17;0.95;;;;;;;9.16;61.18;93887.53;6276528;22;20020;-85
2023/12/13 22:43:03;;;;;;;0.98;0.88;;;;;;;9.23;60.84;93890.09;6249839;22;20008;-85
2023/12/13 22:45:30;;;;;;;1.00;0.90;;;;;;;9.12;60.51;93887.13;6249147;22;20010;-86
2023/12/13 22:47:55;;;;;;;1.23;0.85;;;;;;;8.92;61.60;93887.13;6199257;22;20096;-85
2023/12/13 22:52:46;;;;;;;1.20;0.90;;;;;;;8.92;61.36;93891.50;6245118;22;20016;-84
2023/12/13 22:55:12;;;;;;;0.82;0.75;;;;;;;8.96;60.73;93893.50;6194714;23;20020;-85
2023/12/13 22:57:41;;;;;;;1.30;0.70;;;;;;;8.83;61.18;93903.88;6194414;23;20012;-86
2023/12/13 23:00:27;;;;;;;1.27;0.80;;;;;;;8.72;60.90;93897.50;6219646;23;20079;-85
2023/12/13 23:02:56;;;;;;;1.05;0.90;;;;;;;8.75;61.15;93898.88;6219807;23;20054;-85
2023/12/13 23:05:22;;;;;;;0.70;0.70;;;;;;;8.88;60.65;93898.09;6219029;23;20022;-85
2023/12/13 23:07:48;;;;;;;0.73;0.65;;;;;;;8.72;61.17;93894.91;6194114;23;20031;-85
2023/12/13 23:10:17;;;;;;;0.90;0.80;;;;;;;8.82;60.97;93904.09;6218675;23;20007;-85
2023/12/13 23:12:42;;;;;;;1.75;0.70;;;;;;;8.68;60.83;93898.06;6217339;23;20054;-85
2023/12/13 23:15:08;;;;;;;0.88;0.80;;;;;;;8.48;61.40;93900.66;6193940;23;20016;-85
2023/12/13 23:17:33;;;;;;;0.80;0.70;;;;;;;8.27;62.68;93904.94;6194407;23;20023;-85
2023/12/13 23:20:00;;;;;;;1.73;0.60;;;;;;;8.40;62.12;93911.97;6194056;23;20035;-85
2023/12/13 23:22:25;;;;;;;1.20;0.65;;;;;;;8.05;63.82;93919.81;6218710;23;20083;-85
2023/12/13 23:24:51;;;;;;;0.60;0.60;;;;;;;7.87;64.32;93917.75;6169414;23;20027;-85
2023/12/13 23:27:20;;;;;;;0.70;0.65;;;;;;;8.08;63.42;93914.25;6194059;23;20008;-84
2023/12/13 23:29:46;;;;;;;1.35;0.90;;;;;;;8.22;63.21;93918.50;6219253;23;20000;-85
2023/12/13 23:32:11;;;;;;;2.05;0.90;;;;;;;8.04;63.86;93920.81;6219115;23;20000;-85
2023/12/13 23:37:02;;;;;;;0.80;0.80;;;;;;;8.40;63.24;93932.69;6248349;22;20020;-85
2023/12/13 23:39:30;;;;;;;1.00;0.90;;;;;;;8.45;62.49;93927.72;6224244;22;20011;-85
2023/12/13 23:41:55;;;;;;;1.52;0.93;;;;;;;8.56;62.39;93937.53;6224525;22;20007;-85
2023/12/13 23:44:21;;;;;;;1.15;1.05;;;;;;;8.61;62.63;93937.75;6249187;22;20002;-85
2023/12/13 23:49:12;;;;;;;2.28;1.35;;;;;;;8.42;63.48;93930.72;6244519;22;20012;-85
2023/12/13 23:51:37;;;;;;;3.03;1.23;;;;;;;8.63;63.47;93940.16;6192945;23;20005;-84
2023/12/13 23:54:03;;;;;;;2.67;1.70;;;;;;;8.51;63.75;93939.09;6193384;23;20012;-85
2023/12/13 23:56:32;;;;;;;3.03;1.83;;;;;;;8.38;64.26;93947.63;6219063;23;20023;-85
2023/12/13 23:58:58;;;;;;;3.08;1.42;;;;;;;8.57;63.11;93938.34;6194688;23;20019;-85
